sensor_id;sensor_type;location;lat;lon;timestamp;P1;durP1;ratioP1;P2;durP2;ratioP2
55718;SDS011;41623;46.104;19.656;2024-03-23T00:53:12;9.35;;;5.53;;
55718;SDS011;41623;46.104;19.656;2024-03-23T00:55:39;8.82;;;5.22;;
55718;SDS011;41623;46.104;19.656;2024-03-23T00:58:06;11.77;;;5.30;;
55718;SDS011;41623;46.104;19.656;2024-03-23T01:00:31;11.23;;;6.00;;
55718;SDS011;41623;46.104;19.656;2024-03-23T01:02:58;11.05;;;6.05;;
55718;SDS011;41623;46.104;19.656;2024-03-23T01:05:24;13.30;;;6.50;;
55718;SDS011;41623;46.104;19.656;2024-03-23T01:07:49;16.10;;;6.95;;
55718;SDS011;41623;46.104;19.656;2024-03-23T01:10:15;16.15;;;7.15;;
55718;SDS011;41623;46.104;19.656;2024-03-23T01:12:41;9.85;;;6.45;;
55718;SDS011;41623;46.104;19.656;2024-03-23T01:15:07;9.65;;;5.72;;
55718;SDS011;41623;46.104;19.656;2024-03-23T01:17:33;196.52;;;16.73;;
55718;SDS011;41623;46.104;19.656;2024-03-23T01:19:59;26.98;;;9.05;;
55718;SDS011;41623;46.104;19.656;2024-03-23T01:22:25;11.60;;;6.80;;
55718;SDS011;41623;46.104;19.656;2024-03-23T01:24:51;12.98;;;7.13;;
55718;SDS011;41623;46.104;19.656;2024-03-23T01:27:17;17.50;;;7.13;;
55718;SDS011;41623;46.104;19.656;2024-03-23T01:29:43;14.57;;;7.55;;
55718;SDS011;41623;46.104;19.656;2024-03-23T01:32:10;11.52;;;6.28;;
55718;SDS011;41623;46.104;19.656;2024-03-23T01:34:36;14.55;;;7.50;;
55718;SDS011;41623;46.104;19.656;2024-03-23T01:37:01;12.35;;;7.25;;
55718;SDS011;41623;46.104;19.656;2024-03-23T01:39:27;16.75;;;8.18;;
55718;SDS011;41623;46.104;19.656;2024-03-23T01:41:53;13.02;;;6.57;;
55718;SDS011;41623;46.104;19.656;2024-03-23T01:44:19;10.13;;;6.38;;
55718;SDS011;41623;46.104;19.656;2024-03-23T01:46:44;11.25;;;6.40;;
55718;SDS011;41623;46.104;19.656;2024-03-23T01:49:10;17.52;;;7.82;;
55718;SDS011;41623;46.104;19.656;2024-03-23T01:51:37;14.15;;;6.72;;
55718;SDS011;41623;46.104;19.656;2024-03-23T01:54:03;16.55;;;5.85;;
55718;SDS011;41623;46.104;19.656;2024-03-23T01:56:30;19.58;;;7.88;;
55718;SDS011;41623;46.104;19.656;2024-03-23T01:59:01;14.70;;;6.78;;
55718;SDS011;41623;46.104;19.656;2024-03-23T02:01:31;14.82;;;7.50;;
55718;SDS011;41623;46.104;19.656;2024-03-23T02:03:57;16.85;;;7.32;;
55718;SDS011;41623;46.104;19.656;2024-03-23T02:06:24;12.50;;;7.43;;
55718;SDS011;41623;46.104;19.656;2024-03-23T02:08:50;11.32;;;5.60;;
55718;SDS011;41623;46.104;19.656;2024-03-23T02:11:17;10.68;;;5.93;;
55718;SDS011;41623;46.104;19.656;2024-03-23T02:13:42;14.38;;;5.35;;
55718;SDS011;41623;46.104;19.656;2024-03-23T02:16:08;10.10;;;6.10;;
55718;SDS011;41623;46.104;19.656;2024-03-23T02:18:34;13.88;;;7.15;;
55718;SDS011;41623;46.104;19.656;2024-03-23T02:21:00;12.05;;;6.60;;
55718;SDS011;41623;46.104;19.656;2024-03-23T02:23:26;10.57;;;5.68;;
55718;SDS011;41623;46.104;19.656;2024-03-23T02:25:52;18.02;;;6.55;;
55718;SDS011;41623;46.104;19.656;2024-03-23T02:28:20;14.52;;;7.03;;
55718;SDS011;41623;46.104;19.656;2024-03-23T02:30:47;9.82;;;5.35;;
55718;SDS011;41623;46.104;19.656;2024-03-23T02:33:14;15.95;;;6.03;;
55718;SDS011;41623;46.104;19.656;2024-03-23T02:35:40;16.08;;;6.75;;
55718;SDS011;41623;46.104;19.656;2024-03-23T02:38:05;17.77;;;7.80;;
55718;SDS011;41623;46.104;19.656;2024-03-23T02:40:33;14.55;;;8.60;;
55718;SDS011;41623;46.104;19.656;2024-03-23T02:42:59;13.45;;;7.00;;
55718;SDS011;41623;46.104;19.656;2024-03-23T02:45:25;10.88;;;7.25;;
55718;SDS011;41623;46.104;19.656;2024-03-23T02:47:51;15.55;;;6.95;;
55718;SDS011;41623;46.104;19.656;2024-03-23T02:50:18;11.23;;;7.38;;
55718;SDS011;41623;46.104;19.656;2024-03-23T02:52:44;10.80;;;6.43;;
55718;SDS011;41623;46.104;19.656;2024-03-23T02:55:10;14.18;;;6.50;;
55718;SDS011;41623;46.104;19.656;2024-03-23T02:57:36;12.02;;;6.53;;
55718;SDS011;41623;46.104;19.656;2024-03-23T03:00:02;15.00;;;6.15;;
55718;SDS011;41623;46.104;19.656;2024-03-23T03:02:29;16.80;;;7.22;;
55718;SDS011;41623;46.104;19.656;2024-03-23T03:04:54;9.73;;;5.53;;
55718;SDS011;41623;46.104;19.656;2024-03-23T03:07:21;12.32;;;5.22;;
55718;SDS011;41623;46.104;19.656;2024-03-23T03:09:47;10.95;;;5.43;;
55718;SDS011;41623;46.104;19.656;2024-03-23T03:12:12;9.40;;;5.15;;
55718;SDS011;41623;46.104;19.656;2024-03-23T03:14:38;11.93;;;6.13;;
55718;SDS011;41623;46.104;19.656;2024-03-23T03:17:04;11.40;;;5.93;;
55718;SDS011;41623;46.104;19.656;2024-03-23T03:19:30;14.98;;;6.50;;
55718;SDS011;41623;46.104;19.656;2024-03-23T03:21:55;13.32;;;6.82;;
55718;SDS011;41623;46.104;19.656;2024-03-23T03:24:21;13.38;;;6.63;;
55718;SDS011;41623;46.104;19.656;2024-03-23T03:26:47;7.13;;;5.50;;
55718;SDS011;41623;46.104;19.656;2024-03-23T03:29:14;11.18;;;5.88;;
55718;SDS011;41623;46.104;19.656;2024-03-23T03:31:40;16.27;;;6.75;;
55718;SDS011;41623;46.104;19.656;2024-03-23T03:34:06;19.25;;;7.50;;
55718;SDS011;41623;46.104;19.656;2024-03-23T03:36:32;14.40;;;6.68;;
55718;SDS011;41623;46.104;19.656;2024-03-23T03:38:57;13.27;;;6.50;;
55718;SDS011;41623;46.104;19.656;2024-03-23T03:41:23;11.77;;;6.32;;
55718;SDS011;41623;46.104;19.656;2024-03-23T03:43:49;12.93;;;7.00;;
55718;SDS011;41623;46.104;19.656;2024-03-23T03:46:15;14.50;;;6.95;;
55718;SDS011;41623;46.104;19.656;2024-03-23T03:48:40;9.00;;;6.60;;
55718;SDS011;41623;46.104;19.656;2024-03-23T03:51:06;11.98;;;6.60;;
55718;SDS011;41623;46.104;19.656;2024-03-23T03:53:32;14.65;;;7.72;;
55718;SDS011;41623;46.104;19.656;2024-03-23T03:56:01;12.50;;;7.10;;
55718;SDS011;41623;46.104;19.656;2024-03-23T03:58:28;9.18;;;6.05;;
55718;SDS011;41623;46.104;19.656;2024-03-23T04:00:54;14.88;;;6.93;;
55718;SDS011;41623;46.104;19.656;2024-03-23T04:03:22;10.63;;;5.90;;
55718;SDS011;41623;46.104;19.656;2024-03-23T04:05:53;10.43;;;5.55;;
55718;SDS011;41623;46.104;19.656;2024-03-23T04:08:19;9.55;;;5.30;;
55718;SDS011;41623;46.104;19.656;2024-03-23T04:10:46;11.05;;;6.80;;
55718;SDS011;41623;46.104;19.656;2024-03-23T04:13:12;9.05;;;5.82;;
55718;SDS011;41623;46.104;19.656;2024-03-23T04:15:39;10.27;;;5.40;;
55718;SDS011;41623;46.104;19.656;2024-03-23T04:18:06;11.00;;;6.57;;
55718;SDS011;41623;46.104;19.656;2024-03-23T04:20:31;15.65;;;6.57;;
55718;SDS011;41623;46.104;19.656;2024-03-23T04:22:57;12.38;;;6.63;;
55718;SDS011;41623;46.104;19.656;2024-03-23T04:25:24;10.27;;;5.82;;
55718;SDS011;41623;46.104;19.656;2024-03-23T04:27:49;11.00;;;6.50;;
55718;SDS011;41623;46.104;19.656;2024-03-23T04:30:15;11.85;;;6.25;;
55718;SDS011;41623;46.104;19.656;2024-03-23T04:32:41;8.50;;;5.43;;
55718;SDS011;41623;46.104;19.656;2024-03-23T04:35:07;8.75;;;6.22;;
55718;SDS011;41623;46.104;19.656;2024-03-23T04:37:39;8.60;;;6.05;;
55718;SDS011;41623;46.104;19.656;2024-03-23T04:40:08;13.30;;;6.45;;
55718;SDS011;41623;46.104;19.656;2024-03-23T04:42:34;20.10;;;6.68;;
55718;SDS011;41623;46.104;19.656;2024-03-23T04:45:00;12.35;;;5.93;;
55718;SDS011;41623;46.104;19.656;2024-03-23T04:47:26;7.03;;;5.10;;
55718;SDS011;41623;46.104;19.656;2024-03-23T04:49:52;10.68;;;6.32;;
55718;SDS011;41623;46.104;19.656;2024-03-23T04:52:18;9.38;;;6.10;;
55718;SDS011;41623;46.104;19.656;2024-03-23T04:54:44;9.07;;;5.15;;
55718;SDS011;41623;46.104;19.656;2024-03-23T04:57:13;11.00;;;5.57;;
55718;SDS011;41623;46.104;19.656;2024-03-23T04:59:38;10.25;;;6.40;;
55718;SDS011;41623;46.104;19.656;2024-03-23T05:02:05;11.75;;;6.38;;
55718;SDS011;41623;46.104;19.656;2024-03-23T05:04:31;10.32;;;6.35;;
55718;SDS011;41623;46.104;19.656;2024-03-23T05:06:59;15.10;;;6.88;;
55718;SDS011;41623;46.104;19.656;2024-03-23T05:09:25;13.07;;;6.63;;
55718;SDS011;41623;46.104;19.656;2024-03-23T05:11:54;10.30;;;5.85;;
55718;SDS011;41623;46.104;19.656;2024-03-23T05:14:21;10.13;;;5.38;;
55718;SDS011;41623;46.104;19.656;2024-03-23T05:16:50;10.52;;;5.28;;
55718;SDS011;41623;46.104;19.656;2024-03-23T05:19:16;13.07;;;7.05;;
55718;SDS011;41623;46.104;19.656;2024-03-23T05:21:41;10.98;;;5.88;;
55718;SDS011;41623;46.104;19.656;2024-03-23T05:24:07;7.93;;;5.00;;
55718;SDS011;41623;46.104;19.656;2024-03-23T05:26:33;7.35;;;4.70;;
55718;SDS011;41623;46.104;19.656;2024-03-23T05:29:00;9.45;;;5.78;;
55718;SDS011;41623;46.104;19.656;2024-03-23T05:31:27;8.55;;;5.60;;
55718;SDS011;41623;46.104;19.656;2024-03-23T05:33:55;9.32;;;5.53;;
55718;SDS011;41623;46.104;19.656;2024-03-23T05:36:21;5.70;;;4.10;;
55718;SDS011;41623;46.104;19.656;2024-03-23T05:38:47;10.18;;;6.13;;
55718;SDS011;41623;46.104;19.656;2024-03-23T05:41:13;13.18;;;7.43;;
55718;SDS011;41623;46.104;19.656;2024-03-23T05:43:39;10.35;;;5.53;;
55718;SDS011;41623;46.104;19.656;2024-03-23T05:46:05;13.15;;;6.50;;
55718;SDS011;41623;46.104;19.656;2024-03-23T05:48:31;8.40;;;4.88;;
55718;SDS011;41623;46.104;19.656;2024-03-23T05:50:57;8.55;;;5.13;;
55718;SDS011;41623;46.104;19.656;2024-03-23T05:53:23;15.70;;;5.53;;
55718;SDS011;41623;46.104;19.656;2024-03-23T05:55:49;7.93;;;4.75;;
55718;SDS011;41623;46.104;19.656;2024-03-23T05:58:25;12.88;;;6.10;;
55718;SDS011;41623;46.104;19.656;2024-03-23T06:01:01;5.43;;;4.00;;
55718;SDS011;41623;46.104;19.656;2024-03-23T06:03:28;11.57;;;4.85;;
55718;SDS011;41623;46.104;19.656;2024-03-23T06:05:54;12.75;;;6.40;;
55718;SDS011;41623;46.104;19.656;2024-03-23T06:08:21;13.73;;;5.43;;
55718;SDS011;41623;46.104;19.656;2024-03-23T06:10:47;9.15;;;6.18;;
55718;SDS011;41623;46.104;19.656;2024-03-23T06:13:13;8.00;;;5.13;;
55718;SDS011;41623;46.104;19.656;2024-03-23T06:15:39;9.70;;;5.75;;
55718;SDS011;41623;46.104;19.656;2024-03-23T06:18:05;7.47;;;4.57;;
55718;SDS011;41623;46.104;19.656;2024-03-23T06:20:32;10.60;;;5.63;;
55718;SDS011;41623;46.104;19.656;2024-03-23T06:22:59;8.50;;;4.90;;
55718;SDS011;41623;46.104;19.656;2024-03-23T06:25:28;12.90;;;5.28;;
55718;SDS011;41623;46.104;19.656;2024-03-23T06:27:54;7.13;;;4.28;;
55718;SDS011;41623;46.104;19.656;2024-03-23T06:30:20;14.77;;;5.47;;
55718;SDS011;41623;46.104;19.656;2024-03-23T06:32:46;7.93;;;5.28;;
55718;SDS011;41623;46.104;19.656;2024-03-23T06:35:12;6.78;;;4.15;;
55718;SDS011;41623;46.104;19.656;2024-03-23T06:37:37;9.23;;;5.72;;
55718;SDS011;41623;46.104;19.656;2024-03-23T06:40:06;10.25;;;4.35;;
55718;SDS011;41623;46.104;19.656;2024-03-23T06:42:34;8.38;;;4.82;;
55718;SDS011;41623;46.104;19.656;2024-03-23T06:45:02;9.60;;;4.82;;
55718;SDS011;41623;46.104;19.656;2024-03-23T06:47:29;11.05;;;4.53;;
55718;SDS011;41623;46.104;19.656;2024-03-23T06:49:55;10.45;;;5.10;;
55718;SDS011;41623;46.104;19.656;2024-03-23T06:52:21;8.85;;;4.55;;
55718;SDS011;41623;46.104;19.656;2024-03-23T06:54:47;22.15;;;7.88;;
55718;SDS011;41623;46.104;19.656;2024-03-23T06:57:13;18.55;;;8.13;;
55718;SDS011;41623;46.104;19.656;2024-03-23T06:59:39;9.38;;;5.45;;
55718;SDS011;41623;46.104;19.656;2024-03-23T07:02:05;7.85;;;5.00;;
55718;SDS011;41623;46.104;19.656;2024-03-23T07:04:33;8.95;;;4.82;;
55718;SDS011;41623;46.104;19.656;2024-03-23T07:06:59;6.70;;;4.25;;
55718;SDS011;41623;46.104;19.656;2024-03-23T07:09:27;7.05;;;5.07;;
55718;SDS011;41623;46.104;19.656;2024-03-23T07:11:56;9.65;;;4.60;;
55718;SDS011;41623;46.104;19.656;2024-03-23T07:14:23;6.63;;;4.45;;
55718;SDS011;41623;46.104;19.656;2024-03-23T07:16:49;9.35;;;4.20;;
55718;SDS011;41623;46.104;19.656;2024-03-23T07:19:16;4.53;;;3.03;;
55718;SDS011;41623;46.104;19.656;2024-03-23T07:21:44;10.90;;;5.45;;
55718;SDS011;41623;46.104;19.656;2024-03-23T07:24:10;5.68;;;3.75;;
55718;SDS011;41623;46.104;19.656;2024-03-23T07:26:36;11.80;;;3.72;;
55718;SDS011;41623;46.104;19.656;2024-03-23T07:29:03;6.40;;;4.28;;
55718;SDS011;41623;46.104;19.656;2024-03-23T07:31:29;9.30;;;4.47;;
55718;SDS011;41623;46.104;19.656;2024-03-23T07:33:55;12.48;;;4.63;;
55718;SDS011;41623;46.104;19.656;2024-03-23T07:36:23;6.38;;;4.13;;
55718;SDS011;41623;46.104;19.656;2024-03-23T07:38:49;5.47;;;4.15;;
55718;SDS011;41623;46.104;19.656;2024-03-23T07:41:17;6.95;;;4.95;;
55718;SDS011;41623;46.104;19.656;2024-03-23T07:43:44;6.22;;;4.10;;
55718;SDS011;41623;46.104;19.656;2024-03-23T07:46:11;13.48;;;5.15;;
55718;SDS011;41623;46.104;19.656;2024-03-23T07:48:38;10.63;;;3.90;;
55718;SDS011;41623;46.104;19.656;2024-03-23T07:51:07;4.18;;;3.22;;
55718;SDS011;41623;46.104;19.656;2024-03-23T07:53:34;4.82;;;3.40;;
55718;SDS011;41623;46.104;19.656;2024-03-23T07:56:02;6.13;;;4.30;;
55718;SDS011;41623;46.104;19.656;2024-03-23T07:58:32;6.93;;;4.22;;
55718;SDS011;41623;46.104;19.656;2024-03-23T08:01:14;5.07;;;2.40;;
55718;SDS011;41623;46.104;19.656;2024-03-23T08:03:43;5.93;;;3.20;;
55718;SDS011;41623;46.104;19.656;2024-03-23T08:06:09;8.82;;;4.93;;
55718;SDS011;41623;46.104;19.656;2024-03-23T08:08:38;9.77;;;4.60;;
55718;SDS011;41623;46.104;19.656;2024-03-23T08:11:05;4.95;;;3.67;;
55718;SDS011;41623;46.104;19.656;2024-03-23T08:13:31;4.60;;;3.63;;
55718;SDS011;41623;46.104;19.656;2024-03-23T08:15:58;4.85;;;2.92;;
55718;SDS011;41623;46.104;19.656;2024-03-23T08:18:25;5.95;;;3.35;;
55718;SDS011;41623;46.104;19.656;2024-03-23T08:20:57;5.20;;;3.35;;
55718;SDS011;41623;46.104;19.656;2024-03-23T08:23:24;3.72;;;2.60;;
55718;SDS011;41623;46.104;19.656;2024-03-23T08:25:51;1.75;;;1.63;;
55718;SDS011;41623;46.104;19.656;2024-03-23T08:28:17;2.88;;;2.15;;
55718;SDS011;41623;46.104;19.656;2024-03-23T08:30:43;2.67;;;2.45;;
55718;SDS011;41623;46.104;19.656;2024-03-23T08:33:10;8.20;;;4.15;;
55718;SDS011;41623;46.104;19.656;2024-03-23T08:35:35;4.25;;;2.83;;
55718;SDS011;41623;46.104;19.656;2024-03-23T08:38:02;4.20;;;2.53;;
55718;SDS011;41623;46.104;19.656;2024-03-23T08:40:28;8.52;;;3.28;;
55718;SDS011;41623;46.104;19.656;2024-03-23T08:42:54;8.30;;;4.13;;
55718;SDS011;41623;46.104;19.656;2024-03-23T08:45:19;3.30;;;2.55;;
55718;SDS011;41623;46.104;19.656;2024-03-23T08:47:47;5.43;;;3.00;;
55718;SDS011;41623;46.104;19.656;2024-03-23T08:50:13;2.95;;;2.42;;
55718;SDS011;41623;46.104;19.656;2024-03-23T08:52:39;7.47;;;3.90;;
55718;SDS011;41623;46.104;19.656;2024-03-23T08:55:04;4.82;;;3.05;;
55718;SDS011;41623;46.104;19.656;2024-03-23T08:57:30;6.10;;;3.35;;
55718;SDS011;41623;46.104;19.656;2024-03-23T08:59:56;4.78;;;2.72;;
55718;SDS011;41623;46.104;19.656;2024-03-23T09:02:22;5.72;;;3.85;;
55718;SDS011;41623;46.104;19.656;2024-03-23T09:04:48;4.00;;;2.53;;
55718;SDS011;41623;46.104;19.656;2024-03-23T09:07:13;3.72;;;2.33;;
55718;SDS011;41623;46.104;19.656;2024-03-23T09:09:39;5.75;;;3.35;;
55718;SDS011;41623;46.104;19.656;2024-03-23T09:12:05;7.25;;;3.20;;
55718;SDS011;41623;46.104;19.656;2024-03-23T09:14:32;10.50;;;2.80;;
55718;SDS011;41623;46.104;19.656;2024-03-23T09:16:58;5.30;;;2.70;;
55718;SDS011;41623;46.104;19.656;2024-03-23T09:19:26;3.83;;;2.67;;
55718;SDS011;41623;46.104;19.656;2024-03-23T09:21:53;5.30;;;2.90;;
55718;SDS011;41623;46.104;19.656;2024-03-23T09:24:20;1.83;;;1.70;;
55718;SDS011;41623;46.104;19.656;2024-03-23T09:26:46;2.75;;;2.17;;
55718;SDS011;41623;46.104;19.656;2024-03-23T09:29:12;7.85;;;2.80;;
55718;SDS011;41623;46.104;19.656;2024-03-23T09:31:37;2.75;;;2.47;;
55718;SDS011;41623;46.104;19.656;2024-03-23T09:34:07;3.58;;;2.05;;
55718;SDS011;41623;46.104;19.656;2024-03-23T09:36:33;2.78;;;2.50;;
55718;SDS011;41623;46.104;19.656;2024-03-23T09:39:00;38.75;;;6.38;;
55718;SDS011;41623;46.104;19.656;2024-03-23T09:41:26;5.20;;;2.35;;
55718;SDS011;41623;46.104;19.656;2024-03-23T09:43:52;4.65;;;2.90;;
55718;SDS011;41623;46.104;19.656;2024-03-23T09:46:18;1.90;;;1.77;;
55718;SDS011;41623;46.104;19.656;2024-03-23T09:48:46;3.53;;;2.65;;
55718;SDS011;41623;46.104;19.656;2024-03-23T09:51:13;2.42;;;2.15;;
55718;SDS011;41623;46.104;19.656;2024-03-23T09:53:38;2.65;;;2.30;;
55718;SDS011;41623;46.104;19.656;2024-03-23T09:56:04;2.05;;;1.95;;
55718;SDS011;41623;46.104;19.656;2024-03-23T09:58:31;2.17;;;1.98;;
55718;SDS011;41623;46.104;19.656;2024-03-23T10:00:57;2.13;;;1.95;;
55718;SDS011;41623;46.104;19.656;2024-03-23T10:03:23;3.83;;;2.53;;
55718;SDS011;41623;46.104;19.656;2024-03-23T10:06:00;4.40;;;2.55;;
55718;SDS011;41623;46.104;19.656;2024-03-23T10:08:26;3.75;;;2.35;;
55718;SDS011;41623;46.104;19.656;2024-03-23T10:10:55;5.57;;;3.13;;
55718;SDS011;41623;46.104;19.656;2024-03-23T10:13:27;3.33;;;2.70;;
55718;SDS011;41623;46.104;19.656;2024-03-23T10:15:57;2.53;;;2.33;;
55718;SDS011;41623;46.104;19.656;2024-03-23T10:18:23;3.70;;;2.33;;
55718;SDS011;41623;46.104;19.656;2024-03-23T10:21:13;2.20;;;2.00;;
55718;SDS011;41623;46.104;19.656;2024-03-23T10:23:39;2.58;;;2.15;;
55718;SDS011;41623;46.104;19.656;2024-03-23T10:26:16;2.35;;;1.90;;
55718;SDS011;41623;46.104;19.656;2024-03-23T10:28:52;6.05;;;2.60;;
55718;SDS011;41623;46.104;19.656;2024-03-23T10:31:30;2.13;;;1.92;;
55718;SDS011;41623;46.104;19.656;2024-03-23T10:33:57;22.25;;;3.22;;
55718;SDS011;41623;46.104;19.656;2024-03-23T10:36:25;4.35;;;2.58;;
55718;SDS011;41623;46.104;19.656;2024-03-23T10:38:51;2.53;;;2.33;;
55718;SDS011;41623;46.104;19.656;2024-03-23T10:41:19;2.83;;;2.58;;
55718;SDS011;41623;46.104;19.656;2024-03-23T10:43:49;10.57;;;2.17;;
55718;SDS011;41623;46.104;19.656;2024-03-23T10:46:15;5.82;;;2.72;;
55718;SDS011;41623;46.104;19.656;2024-03-23T10:48:41;3.75;;;2.83;;
55718;SDS011;41623;46.104;19.656;2024-03-23T10:51:08;2.28;;;2.10;;
55718;SDS011;41623;46.104;19.656;2024-03-23T10:53:36;2.30;;;2.10;;
55718;SDS011;41623;46.104;19.656;2024-03-23T10:56:05;4.78;;;3.08;;
55718;SDS011;41623;46.104;19.656;2024-03-23T10:58:38;1.90;;;1.67;;
55718;SDS011;41623;46.104;19.656;2024-03-23T11:01:05;3.15;;;2.42;;
55718;SDS011;41623;46.104;19.656;2024-03-23T11:03:32;3.47;;;2.80;;
55718;SDS011;41623;46.104;19.656;2024-03-23T11:06:00;3.05;;;2.53;;
55718;SDS011;41623;46.104;19.656;2024-03-23T11:08:29;1.95;;;1.85;;
55718;SDS011;41623;46.104;19.656;2024-03-23T11:11:17;2.67;;;2.25;;
55718;SDS011;41623;46.104;19.656;2024-03-23T11:13:48;2.33;;;2.13;;
55718;SDS011;41623;46.104;19.656;2024-03-23T11:16:24;2.65;;;2.35;;
55718;SDS011;41623;46.104;19.656;2024-03-23T11:19:33;3.92;;;2.63;;
55718;SDS011;41623;46.104;19.656;2024-03-23T11:22:02;2.00;;;1.88;;
55718;SDS011;41623;46.104;19.656;2024-03-23T11:24:30;1.90;;;1.80;;
55718;SDS011;41623;46.104;19.656;2024-03-23T11:26:56;28.70;;;2.75;;
55718;SDS011;41623;46.104;19.656;2024-03-23T11:29:25;3.13;;;2.55;;
55718;SDS011;41623;46.104;19.656;2024-03-23T11:31:52;3.08;;;2.40;;
55718;SDS011;41623;46.104;19.656;2024-03-23T11:34:18;2.38;;;2.25;;
55718;SDS011;41623;46.104;19.656;2024-03-23T11:36:45;2.50;;;2.30;;
55718;SDS011;41623;46.104;19.656;2024-03-23T11:41:48;3.05;;;2.55;;
55718;SDS011;41623;46.104;19.656;2024-03-23T11:44:17;2.60;;;2.40;;
55718;SDS011;41623;46.104;19.656;2024-03-23T11:46:47;2.78;;;2.58;;
55718;SDS011;41623;46.104;19.656;2024-03-23T11:49:27;2.58;;;2.38;;
55718;SDS011;41623;46.104;19.656;2024-03-23T11:51:54;2.42;;;2.22;;
55718;SDS011;41623;46.104;19.656;2024-03-23T11:54:24;2.63;;;2.42;;
55718;SDS011;41623;46.104;19.656;2024-03-23T11:56:58;3.25;;;2.45;;
55718;SDS011;41623;46.104;19.656;2024-03-23T11:59:33;2.33;;;2.15;;
55718;SDS011;41623;46.104;19.656;2024-03-23T12:02:06;6.40;;;2.50;;
55718;SDS011;41623;46.104;19.656;2024-03-23T12:04:33;2.22;;;2.05;;
55718;SDS011;41623;46.104;19.656;2024-03-23T12:07:15;2.20;;;2.00;;
55718;SDS011;41623;46.104;19.656;2024-03-23T12:09:45;2.42;;;2.25;;
55718;SDS011;41623;46.104;19.656;2024-03-23T12:12:15;3.17;;;2.40;;
55718;SDS011;41623;46.104;19.656;2024-03-23T12:14:43;2.17;;;2.05;;
55718;SDS011;41623;46.104;19.656;2024-03-23T12:19:36;2.47;;;2.28;;
55718;SDS011;41623;46.104;19.656;2024-03-23T12:22:02;2.25;;;2.05;;
55718;SDS011;41623;46.104;19.656;2024-03-23T12:24:29;2.78;;;2.05;;
55718;SDS011;41623;46.104;19.656;2024-03-23T12:26:59;3.75;;;2.30;;
55718;SDS011;41623;46.104;19.656;2024-03-23T12:29:27;1.77;;;1.67;;
55718;SDS011;41623;46.104;19.656;2024-03-23T12:31:53;3.47;;;2.47;;
55718;SDS011;41623;46.104;19.656;2024-03-23T12:34:20;1.92;;;1.83;;
55718;SDS011;41623;46.104;19.656;2024-03-23T12:36:47;2.40;;;2.20;;
55718;SDS011;41623;46.104;19.656;2024-03-23T12:39:13;1.77;;;1.67;;
55718;SDS011;41623;46.104;19.656;2024-03-23T12:41:39;2.55;;;2.35;;
55718;SDS011;41623;46.104;19.656;2024-03-23T12:44:05;1.85;;;1.75;;
55718;SDS011;41623;46.104;19.656;2024-03-23T12:46:30;4.88;;;2.17;;
55718;SDS011;41623;46.104;19.656;2024-03-23T12:48:56;2.00;;;1.80;;
55718;SDS011;41623;46.104;19.656;2024-03-23T12:51:23;1.90;;;1.80;;
55718;SDS011;41623;46.104;19.656;2024-03-23T12:53:48;2.17;;;1.98;;
55718;SDS011;41623;46.104;19.656;2024-03-23T12:56:14;2.33;;;1.80;;
55718;SDS011;41623;46.104;19.656;2024-03-23T12:58:41;2.03;;;1.90;;
55718;SDS011;41623;46.104;19.656;2024-03-23T13:01:08;1.92;;;1.80;;
55718;SDS011;41623;46.104;19.656;2024-03-23T13:03:34;2.03;;;1.92;;
55718;SDS011;41623;46.104;19.656;2024-03-23T13:05:59;1.85;;;1.70;;
55718;SDS011;41623;46.104;19.656;2024-03-23T13:08:25;1.98;;;1.88;;
55718;SDS011;41623;46.104;19.656;2024-03-23T13:10:51;2.38;;;2.17;;
55718;SDS011;41623;46.104;19.656;2024-03-23T13:13:18;2.85;;;2.05;;
55718;SDS011;41623;46.104;19.656;2024-03-23T13:15:49;1.98;;;1.77;;
55718;SDS011;41623;46.104;19.656;2024-03-23T13:18:15;2.13;;;2.03;;
55718;SDS011;41623;46.104;19.656;2024-03-23T13:20:41;1.83;;;1.73;;
55718;SDS011;41623;46.104;19.656;2024-03-23T13:23:07;1.75;;;1.65;;
55718;SDS011;41623;46.104;19.656;2024-03-23T13:25:33;2.22;;;1.60;;
55718;SDS011;41623;46.104;19.656;2024-03-23T13:27:58;1.92;;;1.83;;
55718;SDS011;41623;46.104;19.656;2024-03-23T13:30:24;1.65;;;1.55;;
55718;SDS011;41623;46.104;19.656;2024-03-23T13:32:50;1.77;;;1.65;;
55718;SDS011;41623;46.104;19.656;2024-03-23T13:35:16;1.90;;;1.77;;
55718;SDS011;41623;46.104;19.656;2024-03-23T13:37:41;1.60;;;1.50;;
55718;SDS011;41623;46.104;19.656;2024-03-23T13:40:08;1.77;;;1.67;;
55718;SDS011;41623;46.104;19.656;2024-03-23T13:42:34;2.20;;;2.00;;
55718;SDS011;41623;46.104;19.656;2024-03-23T13:45:00;1.88;;;1.77;;
55718;SDS011;41623;46.104;19.656;2024-03-23T13:47:26;1.90;;;1.80;;
55718;SDS011;41623;46.104;19.656;2024-03-23T13:49:53;2.22;;;1.92;;
55718;SDS011;41623;46.104;19.656;2024-03-23T13:52:18;2.53;;;2.22;;
55718;SDS011;41623;46.104;19.656;2024-03-23T13:54:48;1.88;;;1.63;;
55718;SDS011;41623;46.104;19.656;2024-03-23T13:57:14;1.65;;;1.55;;
55718;SDS011;41623;46.104;19.656;2024-03-23T13:59:40;2.25;;;2.08;;
55718;SDS011;41623;46.104;19.656;2024-03-23T14:02:06;1.80;;;1.65;;
55718;SDS011;41623;46.104;19.656;2024-03-23T14:04:32;2.20;;;2.00;;
55718;SDS011;41623;46.104;19.656;2024-03-23T14:06:58;4.43;;;1.67;;
55718;SDS011;41623;46.104;19.656;2024-03-23T14:09:23;1.73;;;1.63;;
55718;SDS011;41623;46.104;19.656;2024-03-23T14:11:50;1.50;;;1.40;;
55718;SDS011;41623;46.104;19.656;2024-03-23T14:14:16;2.20;;;2.03;;
55718;SDS011;41623;46.104;19.656;2024-03-23T14:16:42;1.85;;;1.75;;
55718;SDS011;41623;46.104;19.656;2024-03-23T14:19:08;3.72;;;2.08;;
55718;SDS011;41623;46.104;19.656;2024-03-23T14:21:34;14.10;;;2.30;;
55718;SDS011;41623;46.104;19.656;2024-03-23T14:24:00;4.13;;;2.20;;
55718;SDS011;41623;46.104;19.656;2024-03-23T14:26:26;2.03;;;1.92;;
55718;SDS011;41623;46.104;19.656;2024-03-23T14:28:52;1.90;;;1.80;;
55718;SDS011;41623;46.104;19.656;2024-03-23T14:31:18;2.00;;;1.80;;
55718;SDS011;41623;46.104;19.656;2024-03-23T14:33:45;2.00;;;1.90;;
55718;SDS011;41623;46.104;19.656;2024-03-23T14:36:12;1.92;;;1.73;;
55718;SDS011;41623;46.104;19.656;2024-03-23T14:38:38;2.20;;;2.03;;
55718;SDS011;41623;46.104;19.656;2024-03-23T14:41:04;1.83;;;1.73;;
55718;SDS011;41623;46.104;19.656;2024-03-23T14:43:32;2.03;;;1.77;;
55718;SDS011;41623;46.104;19.656;2024-03-23T14:46:11;2.92;;;2.28;;
55718;SDS011;41623;46.104;19.656;2024-03-23T14:48:40;4.95;;;2.85;;
55718;SDS011;41623;46.104;19.656;2024-03-23T14:51:09;3.80;;;2.10;;
55718;SDS011;41623;46.104;19.656;2024-03-23T14:53:36;5.05;;;2.33;;
55718;SDS011;41623;46.104;19.656;2024-03-23T14:56:07;3.08;;;1.90;;
55718;SDS011;41623;46.104;19.656;2024-03-23T14:58:35;1.85;;;1.73;;
55718;SDS011;41623;46.104;19.656;2024-03-23T15:01:04;2.33;;;2.13;;
55718;SDS011;41623;46.104;19.656;2024-03-23T15:03:34;2.15;;;1.95;;
55718;SDS011;41623;46.104;19.656;2024-03-23T15:08:36;1.60;;;1.50;;
55718;SDS011;41623;46.104;19.656;2024-03-23T15:11:03;4.53;;;2.63;;
55718;SDS011;41623;46.104;19.656;2024-03-23T15:13:35;2.42;;;2.22;;
55718;SDS011;41623;46.104;19.656;2024-03-23T15:16:01;3.22;;;2.42;;
55718;SDS011;41623;46.104;19.656;2024-03-23T15:18:29;3.50;;;2.80;;
55718;SDS011;41623;46.104;19.656;2024-03-23T15:20:59;2.97;;;2.60;;
55718;SDS011;41623;46.104;19.656;2024-03-23T15:23:29;2.47;;;2.28;;
55718;SDS011;41623;46.104;19.656;2024-03-23T15:25:58;3.90;;;2.13;;
55718;SDS011;41623;46.104;19.656;2024-03-23T15:28:28;2.45;;;2.00;;
55718;SDS011;41623;46.104;19.656;2024-03-23T15:31:06;2.13;;;1.98;;